Time;durP1;ratioP1;P1;durP2;ratioP2;P2;SDS_P1;SDS_P2;PMS_P1;PMS_P2;Temp;Humidity;BMP_temperature;BMP_pressure;BME280_temperature;BME280_humidity;BME280_pressure;Samples;Min_cycle;Max_cycle;Signal;HPM_P1;HPM_P2
2021/03/30 00:00:32;;;;;;;9.63;3.75;;;;;;;;;;5014168;28;20101;-55
2021/03/30 00:02:58;;;;;;;8.73;4.00;;;;;;;;;;5014026;28;20497;-55
2021/03/30 00:05:24;;;;;;;9.90;4.45;;;;;;;;;;5014110;28;20022;-55
2021/03/30 00:07:50;;;;;;;7.65;3.33;;;;;;;;;;5013707;28;20042;-56
2021/03/30 00:10:17;;;;;;;8.63;3.83;;;;;;;;;;5014000;28;20022;-57
2021/03/30 00:12:43;;;;;;;7.22;4.07;;;;;;;;;;5013873;28;20029;-56
2021/03/30 00:15:10;;;;;;;7.05;3.30;;;;;;;;;;5013835;28;20041;-56
2021/03/30 00:17:36;;;;;;;8.25;3.58;;;;;;;;;;5014027;28;20373;-56
2021/03/30 00:20:07;;;;;;;8.93;3.42;;;;;;;;;;5013501;28;20531;-52
2021/03/30 00:22:33;;;;;;;7.38;4.10;;;;;;;;;;5013870;28;20047;-56
2021/03/30 00:24:59;;;;;;;7.97;3.78;;;;;;;;;;5013765;28;20026;-56
2021/03/30 00:27:25;;;;;;;8.90;3.70;;;;;;;;;;5013717;28;20034;-52
2021/03/30 00:29:51;;;;;;;8.63;3.92;;;;;;;;;;5013915;28;20087;-57
2021/03/30 00:32:17;;;;;;;7.88;3.85;;;;;;;;;;5013633;28;20026;-55
2021/03/30 00:34:43;;;;;;;7.22;3.45;;;;;;;;;;4996069;28;20041;-53
2021/03/30 00:37:09;;;;;;;6.30;3.17;;;;;;;;;;5013499;28;20034;-56
2021/03/30 00:39:36;;;;;;;10.52;3.80;;;;;;;;;;5013486;28;20108;-58
2021/03/30 00:42:02;;;;;;;11.75;4.10;;;;;;;;;;5013303;28;20103;-53
2021/03/30 00:44:28;;;;;;;7.43;3.72;;;;;;;;;;5013434;28;20477;-55
2021/03/30 00:46:54;;;;;;;7.82;3.78;;;;;;;;;;5013322;28;20030;-54
2021/03/30 00:49:21;;;;;;;11.50;4.00;;;;;;;;;;5012890;28;20441;-55
2021/03/30 00:51:48;;;;;;;10.02;3.65;;;;;;;;;;5013472;28;20026;-56
2021/03/30 00:54:15;;;;;;;10.10;4.18;;;;;;;;;;5013234;28;20548;-56
2021/03/30 00:56:44;;;;;;;7.72;3.90;;;;;;;;;;5013267;28;20477;-55
2021/03/30 00:59:11;;;;;;;7.05;3.60;;;;;;;;;;5013242;28;20105;-55
2021/03/30 01:01:37;;;;;;;9.38;4.38;;;;;;;;;;5013407;28;20038;-56
2021/03/30 01:04:03;;;;;;;10.52;4.07;;;;;;;;;;5013292;28;20100;-54
2021/03/30 01:06:29;;;;;;;7.32;3.33;;;;;;;;;;5013123;28;20021;-56
2021/03/30 01:09:15;;;;;;;6.47;3.40;;;;;;;;;;5012738;28;20054;-56
2021/03/30 01:11:41;;;;;;;7.22;3.05;;;;;;;;;;5014343;28;20104;-55
2021/03/30 01:14:25;;;;;;;8.45;3.00;;;;;;;;;;5012998;28;20549;-54
2021/03/30 01:17:21;;;;;;;7.75;4.22;;;;;;;;;;5012560;28;20081;-55
2021/03/30 01:19:47;;;;;;;8.43;4.13;;;;;;;;;;4996316;28;20037;-51
2021/03/30 01:22:31;;;;;;;7.63;3.40;;;;;;;;;;5012826;28;20232;-55
2021/03/30 01:25:01;;;;;;;7.95;3.70;;;;;;;;;;5012826;28;20083;-57
2021/03/30 01:27:33;;;;;;;8.23;3.33;;;;;;;;;;5012843;28;20025;-57
2021/03/30 01:30:02;;;;;;;11.05;4.53;;;;;;;;;;5012729;28;20060;-57
2021/03/30 01:32:36;;;;;;;9.07;4.70;;;;;;;;;;5012669;28;20022;-57
2021/03/30 01:35:03;;;;;;;10.70;3.97;;;;;;;;;;4995195;28;20488;-54
2021/03/30 01:37:30;;;;;;;11.82;4.65;;;;;;;;;;5012515;28;20126;-57
2021/03/30 01:40:00;;;;;;;7.18;3.38;;;;;;;;;;5012878;28;20132;-57
2021/03/30 01:42:29;;;;;;;10.40;4.32;;;;;;;;;;5012449;28;20462;-56
2021/03/30 01:44:55;;;;;;;11.80;3.70;;;;;;;;;;5011948;28;20037;-57
2021/03/30 01:47:22;;;;;;;9.00;4.05;;;;;;;;;;4994467;28;20370;-55
2021/03/30 01:49:48;;;;;;;7.50;3.22;;;;;;;;;;5012099;28;20033;-55
2021/03/30 01:52:16;;;;;;;8.45;3.88;;;;;;;;;;5012335;28;20446;-57
2021/03/30 01:54:42;;;;;;;10.18;4.10;;;;;;;;;;5012716;28;20088;-56
2021/03/30 01:57:09;;;;;;;10.20;4.22;;;;;;;;;;5012440;28;20036;-54
2021/03/30 01:59:36;;;;;;;9.68;4.28;;;;;;;;;;5013117;28;20430;-55
2021/03/30 02:02:02;;;;;;;9.25;3.97;;;;;;;;;;5016373;28;20112;-54
2021/03/30 02:04:29;;;;;;;7.90;3.85;;;;;;;;;;5016376;28;20450;-57
2021/03/30 02:06:56;;;;;;;7.95;3.47;;;;;;;;;;5016410;28;20033;-56
2021/03/30 02:09:29;;;;;;;7.93;3.47;;;;;;;;;;5015929;28;20493;-57
2021/03/30 02:12:00;;;;;;;10.48;3.90;;;;;;;;;;5016115;28;20389;-56
2021/03/30 02:14:26;;;;;;;6.60;3.33;;;;;;;;;;5016200;28;20044;-57
2021/03/30 02:16:54;;;;;;;8.45;3.70;;;;;;;;;;5016146;28;20026;-57
2021/03/30 02:19:22;;;;;;;7.43;3.30;;;;;;;;;;5016414;28;20390;-58
2021/03/30 02:22:01;;;;;;;10.00;3.75;;;;;;;;;;4998322;28;20095;-57
2021/03/30 02:24:29;;;;;;;8.48;3.30;;;;;;;;;;5015887;28;20101;-54
2021/03/30 02:26:57;;;;;;;9.60;3.72;;;;;;;;;;5015937;28;20089;-54
2021/03/30 02:29:26;;;;;;;7.53;3.25;;;;;;;;;;5271145;23;20081;-58
2021/03/30 02:31:53;;;;;;;9.57;4.45;;;;;;;;;;5015200;28;20029;-57
2021/03/30 02:34:19;;;;;;;7.65;4.10;;;;;;;;;;5015031;28;20490;-55
2021/03/30 02:36:47;;;;;;;9.55;4.13;;;;;;;;;;5015059;28;20083;-56
2021/03/30 02:39:15;;;;;;;8.98;4.53;;;;;;;;;;5014983;28;20049;-57
2021/03/30 02:41:42;;;;;;;9.32;4.25;;;;;;;;;;5014850;28;20041;-56
2021/03/30 02:44:09;;;;;;;11.18;4.97;;;;;;;;;;5014734;28;20045;-52
2021/03/30 02:46:36;;;;;;;11.40;4.85;;;;;;;;;;5014820;28;20026;-53
2021/03/30 02:49:02;;;;;;;12.88;5.70;;;;;;;;;;5014758;28;20022;-52
2021/03/30 02:51:30;;;;;;;12.13;5.55;;;;;;;;;;5014759;28;20029;-55
2021/03/30 02:53:56;;;;;;;10.55;5.35;;;;;;;;;;5014649;28;20061;-54
2021/03/30 02:56:24;;;;;;;12.88;5.65;;;;;;;;;;5014805;28;20080;-56
2021/03/30 02:58:53;;;;;;;15.90;6.60;;;;;;;;;;5014694;28;20050;-56
2021/03/30 03:01:20;;;;;;;17.83;7.28;;;;;;;;;;5014459;28;20101;-54
2021/03/30 03:03:48;;;;;;;28.65;9.63;;;;;;;;;;5014543;28;20033;-55
2021/03/30 03:06:15;;;;;;;33.78;11.32;;;;;;;;;;5014421;28;20473;-57
2021/03/30 03:08:42;;;;;;;42.10;13.35;;;;;;;;;;5014381;28;20424;-56
2021/03/30 03:11:08;;;;;;;32.85;10.63;;;;;;;;;;5014255;28;20029;-54
2021/03/30 03:13:35;;;;;;;40.58;12.63;;;;;;;;;;5014166;28;20045;-54
2021/03/30 03:16:01;;;;;;;30.48;10.05;;;;;;;;;;5014268;28;20022;-53
2021/03/30 03:18:28;;;;;;;32.03;9.15;;;;;;;;;;5014204;28;20465;-54
2021/03/30 03:20:54;;;;;;;26.98;8.88;;;;;;;;;;5014624;28;20026;-53
2021/03/30 03:23:20;;;;;;;27.55;10.25;;;;;;;;;;5014128;28;20543;-54
2021/03/30 03:25:46;;;;;;;16.65;6.78;;;;;;;;;;5014209;28;20469;-56
2021/03/30 03:28:13;;;;;;;14.13;5.10;;;;;;;;;;5014064;28;20026;-54
2021/03/30 03:30:40;;;;;;;12.18;5.53;;;;;;;;;;5013700;28;20076;-56
2021/03/30 03:33:10;;;;;;;10.27;4.18;;;;;;;;;;5013995;28;20117;-50
2021/03/30 03:35:36;;;;;;;9.05;3.63;;;;;;;;;;5013913;28;20022;-53
2021/03/30 03:38:04;;;;;;;9.20;4.75;;;;;;;;;;5013916;28;20032;-56
2021/03/30 03:40:30;;;;;;;10.30;4.15;;;;;;;;;;5013773;28;20105;-55
2021/03/30 03:42:56;;;;;;;9.43;4.13;;;;;;;;;;5013826;28;20049;-55
2021/03/30 03:45:23;;;;;;;11.80;5.97;;;;;;;;;;5013775;28;20030;-55
2021/03/30 03:47:49;;;;;;;14.25;6.30;;;;;;;;;;4996176;28;20392;-54
2021/03/30 03:50:15;;;;;;;10.27;5.60;;;;;;;;;;5013641;28;20030;-53
2021/03/30 03:53:00;;;;;;;10.30;5.50;;;;;;;;;;5013590;28;20018;-53
2021/03/30 03:55:26;;;;;;;10.50;5.30;;;;;;;;;;5013677;28;20034;-52
2021/03/30 03:58:05;;;;;;;9.23;4.90;;;;;;;;;;5013545;28;20037;-54
2021/03/30 04:00:32;;;;;;;12.43;4.80;;;;;;;;;;5013355;28;20088;-50
2021/03/30 04:03:21;;;;;;;14.38;4.97;;;;;;;;;;5013539;28;20037;-55
2021/03/30 04:06:06;;;;;;;13.07;5.13;;;;;;;;;;5013187;28;20029;-56
2021/03/30 04:08:34;;;;;;;11.02;4.30;;;;;;;;;;5013276;28;20027;-51
2021/03/30 04:11:02;;;;;;;13.77;5.18;;;;;;;;;;5013390;28;20021;-51
2021/03/30 04:13:31;;;;;;;14.43;5.68;;;;;;;;;;5013410;28;20019;-55
2021/03/30 04:16:01;;;;;;;14.85;6.20;;;;;;;;;;5013529;28;20369;-56
2021/03/30 04:18:27;;;;;;;15.93;6.82;;;;;;;;;;5013297;28;20025;-56
2021/03/30 04:20:53;;;;;;;17.08;6.68;;;;;;;;;;5013160;28;20056;-54
2021/03/30 04:23:23;;;;;;;13.70;5.30;;;;;;;;;;5012195;28;20037;-56
2021/03/30 04:25:50;;;;;;;17.15;5.70;;;;;;;;;;5013055;28;20041;-54
2021/03/30 04:28:16;;;;;;;13.05;5.57;;;;;;;;;;5012933;28;20037;-53
2021/03/30 04:30:42;;;;;;;10.88;5.15;;;;;;;;;;5012564;28;20050;-55
2021/03/30 04:33:08;;;;;;;10.70;5.22;;;;;;;;;;5012917;28;20025;-55
2021/03/30 04:35:34;;;;;;;13.85;6.30;;;;;;;;;;5012877;28;20026;-52
2021/03/30 04:38:00;;;;;;;11.90;5.50;;;;;;;;;;5012777;28;20488;-54
2021/03/30 04:40:26;;;;;;;11.15;5.95;;;;;;;;;;5012932;28;20026;-53
2021/03/30 04:42:52;;;;;;;12.23;5.95;;;;;;;;;;5012649;28;20030;-56
2021/03/30 04:45:18;;;;;;;10.68;5.40;;;;;;;;;;5012616;28;20101;-53
2021/03/30 04:47:44;;;;;;;11.02;5.70;;;;;;;;;;5012642;28;20029;-54
2021/03/30 04:50:11;;;;;;;14.10;6.15;;;;;;;;;;5012628;28;20073;-54
2021/03/30 04:52:37;;;;;;;10.60;6.20;;;;;;;;;;5012608;28;20030;-53
2021/03/30 04:55:06;;;;;;;14.23;7.78;;;;;;;;;;5012473;28;20504;-56
2021/03/30 04:57:32;;;;;;;19.77;9.45;;;;;;;;;;5012492;28;20026;-56
2021/03/30 04:59:58;;;;;;;32.67;14.52;;;;;;;;;;5012366;28;20034;-53
2021/03/30 05:02:24;;;;;;;21.98;10.85;;;;;;;;;;5012275;28;20389;-55
2021/03/30 05:04:51;;;;;;;17.55;8.90;;;;;;;;;;5012347;28;20097;-56
2021/03/30 05:07:17;;;;;;;20.98;10.10;;;;;;;;;;5012363;28;20029;-54
2021/03/30 05:09:43;;;;;;;23.13;11.15;;;;;;;;;;5012296;28;20029;-56
2021/03/30 05:12:09;;;;;;;17.65;9.45;;;;;;;;;;5012262;28;20105;-54
2021/03/30 05:14:35;;;;;;;16.15;8.57;;;;;;;;;;5012249;28;20492;-57
2021/03/30 05:17:02;;;;;;;14.10;7.55;;;;;;;;;;5012008;28;20109;-56
2021/03/30 05:19:28;;;;;;;15.25;7.60;;;;;;;;;;5012197;28;20201;-55
2021/03/30 05:21:54;;;;;;;16.63;7.68;;;;;;;;;;5011951;28;20477;-53
2021/03/30 05:24:20;;;;;;;14.00;6.78;;;;;;;;;;5012033;28;20025;-55
2021/03/30 05:26:46;;;;;;;13.23;6.15;;;;;;;;;;5012056;28;20377;-55
2021/03/30 05:29:12;;;;;;;25.83;13.43;;;;;;;;;;5011727;28;20050;-54
2021/03/30 05:31:38;;;;;;;31.75;15.60;;;;;;;;;;5011803;28;20028;-54
2021/03/30 05:34:04;;;;;;;29.17;12.77;;;;;;;;;;5011808;28;20539;-57
2021/03/30 05:36:31;;;;;;;20.95;9.90;;;;;;;;;;5012781;28;20029;-55
2021/03/30 05:38:57;;;;;;;15.88;7.10;;;;;;;;;;5022633;28;20105;-52
2021/03/30 05:41:23;;;;;;;10.55;5.53;;;;;;;;;;5011305;28;20110;-54
2021/03/30 05:43:49;;;;;;;10.90;5.80;;;;;;;;;;5011721;28;20041;-55
2021/03/30 05:46:15;;;;;;;12.45;6.72;;;;;;;;;;5011599;28;20054;-56
2021/03/30 05:48:43;;;;;;;18.35;7.70;;;;;;;;;;4994678;28;20029;-56
2021/03/30 05:51:12;;;;;;;30.30;12.65;;;;;;;;;;5023066;28;20083;-55
2021/03/30 05:53:39;;;;;;;16.95;8.30;;;;;;;;;;5031560;28;20018;-54
2021/03/30 05:56:06;;;;;;;16.23;6.80;;;;;;;;;;5031076;28;20425;-57
2021/03/30 05:58:33;;;;;;;15.63;7.53;;;;;;;;;;5031183;28;20053;-56
2021/03/30 06:01:04;;;;;;;11.02;6.05;;;;;;;;;;5031279;28;20083;-56
2021/03/30 06:03:30;;;;;;;15.27;8.38;;;;;;;;;;5030763;28;20040;-56
2021/03/30 06:05:58;;;;;;;13.70;6.65;;;;;;;;;;5031357;28;20026;-56
2021/03/30 06:08:25;;;;;;;11.55;5.60;;;;;;;;;;5012924;28;20044;-56
2021/03/30 06:10:51;;;;;;;11.35;5.38;;;;;;;;;;5011859;28;20037;-57
2021/03/30 06:13:37;;;;;;;11.27;5.50;;;;;;;;;;5011079;28;20022;-55
2021/03/30 06:16:23;;;;;;;12.43;5.07;;;;;;;;;;5011559;28;20097;-52
2021/03/30 06:18:59;;;;;;;11.88;5.60;;;;;;;;;;5011781;28;20396;-57
2021/03/30 06:21:26;;;;;;;11.20;5.35;;;;;;;;;;5011158;28;20089;-55
2021/03/30 06:23:52;;;;;;;12.43;5.93;;;;;;;;;;5029785;28;20071;-56
2021/03/30 06:26:18;;;;;;;11.05;4.82;;;;;;;;;;5014008;28;20384;-52
2021/03/30 06:28:44;;;;;;;11.07;5.00;;;;;;;;;;5031108;28;20045;-59
2021/03/30 06:31:14;;;;;;;10.85;5.53;;;;;;;;;;5031208;28;20030;-58
2021/03/30 06:33:52;;;;;;;16.10;7.18;;;;;;;;;;5031703;28;20021;-59
2021/03/30 06:36:23;;;;;;;13.25;5.63;;;;;;;;;;5031545;28;20040;-59
2021/03/30 06:39:05;;;;;;;14.25;5.18;;;;;;;;;;5031882;28;20384;-58
2021/03/30 06:46:57;;;;;;;10.00;4.68;;;;;;;;;;5033876;28;20037;-55
2021/03/30 06:49:24;;;;;;;13.60;5.35;;;;;;;;;;5017515;28;20021;-55
2021/03/30 06:51:51;;;;;;;13.90;6.47;;;;;;;;;;5034912;28;20075;-60
2021/03/30 06:54:17;;;;;;;14.52;7.43;;;;;;;;;;5034890;28;20037;-60
2021/03/30 06:56:52;;;;;;;14.82;5.90;;;;;;;;;;5017024;28;20052;-54
2021/03/30 06:59:19;;;;;;;11.00;6.03;;;;;;;;;;5032387;28;20026;-59
2021/03/30 07:01:46;;;;;;;11.45;5.32;;;;;;;;;;5033582;28;20033;-59
2021/03/30 07:04:12;;;;;;;11.95;5.07;;;;;;;;;;5034809;28;20372;-57
2021/03/30 07:06:40;;;;;;;12.23;5.38;;;;;;;;;;5034895;28;20028;-58
2021/03/30 07:09:08;;;;;;;8.57;4.07;;;;;;;;;;5034948;28;20360;-55
2021/03/30 07:11:37;;;;;;;8.43;4.50;;;;;;;;;;5034657;28;20375;-56
2021/03/30 07:14:03;;;;;;;15.63;5.68;;;;;;;;;;5034891;28;20033;-60
2021/03/30 07:16:49;;;;;;;10.68;3.85;;;;;;;;;;5034374;28;20426;-55
2021/03/30 07:19:16;;;;;;;7.15;3.42;;;;;;;;;;5034206;28;20035;-59
2021/03/30 07:21:52;;;;;;;7.68;2.90;;;;;;;;;;5034209;28;20047;-60
2021/03/30 07:24:22;;;;;;;8.25;3.72;;;;;;;;;;5034697;28;20472;-59
2021/03/30 07:26:55;;;;;;;8.30;3.28;;;;;;;;;;5034514;28;20465;-56
2021/03/30 07:29:29;;;;;;;7.95;3.25;;;;;;;;;;5034389;28;20405;-56
2021/03/30 07:32:07;;;;;;;6.82;2.83;;;;;;;;;;5034543;28;20022;-54
2021/03/30 07:34:50;;;;;;;7.63;3.83;;;;;;;;;;5034686;28;20049;-55
2021/03/30 07:37:25;;;;;;;10.00;4.07;;;;;;;;;;5034751;28;20645;-59
2021/03/30 07:39:53;;;;;;;11.15;5.75;;;;;;;;;;5019164;28;20622;-55
2021/03/30 07:42:20;;;;;;;7.90;4.00;;;;;;;;;;5014261;28;20048;-59
2021/03/30 07:44:49;;;;;;;10.38;4.13;;;;;;;;;;5014602;28;20030;-56
2021/03/30 07:47:16;;;;;;;6.97;3.45;;;;;;;;;;5014396;28;20092;-57
2021/03/30 07:49:53;;;;;;;9.15;3.83;;;;;;;;;;5014476;28;20034;-48
2021/03/30 07:52:20;;;;;;;7.28;3.70;;;;;;;;;;5014289;28;20485;-59
2021/03/30 07:55:07;;;;;;;6.70;3.22;;;;;;;;;;5014009;28;20133;-53
2021/03/30 07:57:51;;;;;;;9.45;3.50;;;;;;;;;;5000057;28;20080;-55
2021/03/30 08:00:47;;;;;;;8.02;2.63;;;;;;;;;;5014525;28;20076;-57
2021/03/30 08:03:13;;;;;;;9.40;4.25;;;;;;;;;;4996008;28;20038;-58
2021/03/30 08:05:39;;;;;;;9.70;4.53;;;;;;;;;;5014530;28;20026;-59
2021/03/30 08:08:37;;;;;;;9.90;4.57;;;;;;;;;;5013844;28;20022;-60
2021/03/30 08:11:03;;;;;;;8.73;3.65;;;;;;;;;;4970381;28;20038;-59
2021/03/30 08:13:33;;;;;;;8.00;3.20;;;;;;;;;;5014483;28;20026;-60
2021/03/30 08:16:09;;;;;;;9.23;3.92;;;;;;;;;;5013929;28;20412;-59
2021/03/30 08:18:40;;;;;;;7.82;3.58;;;;;;;;;;5013792;28;20053;-58
2021/03/30 08:21:10;;;;;;;7.68;3.67;;;;;;;;;;5013907;28;20108;-57
2021/03/30 08:23:55;;;;;;;6.35;3.08;;;;;;;;;;5013871;28;20038;-59
2021/03/30 08:26:31;;;;;;;8.10;3.60;;;;;;;;;;5013703;28;20049;-59
2021/03/30 08:29:01;;;;;;;7.57;3.72;;;;;;;;;;5013576;28;20096;-60
2021/03/30 08:31:39;;;;;;;8.25;3.08;;;;;;;;;;5013709;28;20028;-63
2021/03/30 08:34:16;;;;;;;7.25;3.13;;;;;;;;;;5013395;28;20489;-59
2021/03/30 08:36:45;;;;;;;8.70;3.53;;;;;;;;;;5013371;28;20046;-60
2021/03/30 08:39:30;;;;;;;7.10;2.50;;;;;;;;;;5013457;28;20469;-59
2021/03/30 08:41:59;;;;;;;5.90;2.80;;;;;;;;;;5013504;28;20034;-60
2021/03/30 08:44:31;;;;;;;6.60;3.22;;;;;;;;;;5013572;28;20026;-59
2021/03/30 08:46:58;;;;;;;7.72;2.42;;;;;;;;;;5013192;28;20018;-60
2021/03/30 08:49:30;;;;;;;7.03;2.70;;;;;;;;;;5013371;28;20057;-59
2021/03/30 08:52:02;;;;;;;6.00;2.90;;;;;;;;;;5012866;28;20064;-60
2021/03/30 08:54:28;;;;;;;8.02;3.63;;;;;;;;;;5011557;28;20470;-60
2021/03/30 08:56:58;;;;;;;7.10;3.13;;;;;;;;;;5011683;28;20054;-62
2021/03/30 08:59:26;;;;;;;4.90;2.53;;;;;;;;;;5013262;28;20362;-60
2021/03/30 09:01:56;;;;;;;9.38;4.00;;;;;;;;;;5012994;28;20401;-60
2021/03/30 09:04:22;;;;;;;6.53;3.40;;;;;;;;;;5012907;28;20076;-61
2021/03/30 09:06:55;;;;;;;7.00;2.83;;;;;;;;;;5013040;28;20033;-60
2021/03/30 09:09:22;;;;;;;6.20;3.00;;;;;;;;;;5012461;28;20385;-59
2021/03/30 09:11:48;;;;;;;6.55;2.75;;;;;;;;;;5013244;28;20030;-55
2021/03/30 09:14:18;;;;;;;8.20;2.47;;;;;;;;;;5013140;28;20026;-59
2021/03/30 09:16:45;;;;;;;7.43;2.83;;;;;;;;;;5012898;28;20168;-59
2021/03/30 09:19:16;;;;;;;8.80;3.00;;;;;;;;;;5012737;28;20053;-61
2021/03/30 09:21:43;;;;;;;7.38;3.05;;;;;;;;;;5012590;28;20037;-60
2021/03/30 09:24:17;;;;;;;6.32;3.10;;;;;;;;;;5012774;28;20030;-55
2021/03/30 09:26:43;;;;;;;6.35;2.85;;;;;;;;;;5012917;28;20470;-59
2021/03/30 09:29:09;;;;;;;8.50;3.05;;;;;;;;;;5012613;28;20050;-60
2021/03/30 09:31:36;;;;;;;8.82;3.17;;;;;;;;;;5012643;28;20033;-60
2021/03/30 09:34:02;;;;;;;5.28;2.67;;;;;;;;;;5012486;28;20072;-60
2021/03/30 09:36:28;;;;;;;5.95;2.60;;;;;;;;;;5012581;28;20034;-57
2021/03/30 09:38:58;;;;;;;8.07;3.30;;;;;;;;;;5012597;28;20025;-50
2021/03/30 09:41:38;;;;;;;7.22;2.42;;;;;;;;;;5012614;28;20358;-52
2021/03/30 09:44:04;;;;;;;6.40;2.35;;;;;;;;;;5012429;28;20121;-59
2021/03/30 09:46:31;;;;;;;4.43;1.90;;;;;;;;;;5012447;28;20072;-50
2021/03/30 09:48:57;;;;;;;4.97;1.98;;;;;;;;;;5012538;28;20339;-58
2021/03/30 09:51:24;;;;;;;5.00;2.05;;;;;;;;;;5012299;28;20026;-62
2021/03/30 09:53:50;;;;;;;5.40;2.38;;;;;;;;;;5012399;28;20072;-55
2021/03/30 09:56:21;;;;;;;6.93;2.67;;;;;;;;;;5012384;28;20026;-58
2021/03/30 09:58:47;;;;;;;6.25;2.20;;;;;;;;;;5012434;28;20104;-60
2021/03/30 10:01:14;;;;;;;5.50;2.00;;;;;;;;;;5012368;28;20100;-61
2021/03/30 10:03:40;;;;;;;8.13;2.45;;;;;;;;;;5012342;28;20112;-60
2021/03/30 10:06:24;;;;;;;7.43;2.80;;;;;;;;;;5012238;28;20073;-60
2021/03/30 10:08:50;;;;;;;6.57;2.72;;;;;;;;;;5012326;28;20050;-60
2021/03/30 10:11:35;;;;;;;6.80;2.05;;;;;;;;;;5012424;28;20073;-59
2021/03/30 10:14:21;;;;;;;6.35;2.25;;;;;;;;;;5012399;28;20054;-59
2021/03/30 10:16:48;;;;;;;6.80;2.10;;;;;;;;;;5012495;28;20018;-49
2021/03/30 10:19:14;;;;;;;5.20;1.92;;;;;;;;;;5012259;28;20105;-57
2021/03/30 10:21:41;;;;;;;5.47;1.80;;;;;;;;;;5014652;28;20060;-52
2021/03/30 10:24:12;;;;;;;4.40;1.80;;;;;;;;;;4999141;28;20113;-59
2021/03/30 10:26:38;;;;;;;7.07;2.92;;;;;;;;;;5016392;28;20025;-61
2021/03/30 10:29:07;;;;;;;4.97;2.40;;;;;;;;;;5015791;28;20053;-58
2021/03/30 10:31:52;;;;;;;3.28;1.58;;;;;;;;;;5015935;28;20088;-58
2021/03/30 10:34:21;;;;;;;4.63;1.88;;;;;;;;;;5015621;28;20084;-59
2021/03/30 10:36:49;;;;;;;4.82;2.30;;;;;;;;;;5015831;28;20052;-62
2021/03/30 10:39:15;;;;;;;5.63;1.75;;;;;;;;;;5015757;28;20026;-61
2021/03/30 10:41:42;;;;;;;7.88;3.17;;;;;;;;;;5015872;28;20482;-59
2021/03/30 10:44:10;;;;;;;7.13;2.50;;;;;;;;;;5015707;28;20048;-58
2021/03/30 10:46:43;;;;;;;5.65;2.42;;;;;;;;;;5015727;28;20073;-60
2021/03/30 10:49:10;;;;;;;5.63;2.60;;;;;;;;;;5015722;28;20022;-61
2021/03/30 10:51:39;;;;;;;4.68;1.98;;;;;;;;;;5015893;28;20022;-59
2021/03/30 10:54:06;;;;;;;6.72;2.78;;;;;;;;;;5015538;28;20493;-60
2021/03/30 10:56:33;;;;;;;6.15;2.38;;;;;;;;;;5015524;28;20040;-62
2021/03/30 10:58:59;;;;;;;4.25;1.50;;;;;;;;;;5015477;28;20080;-59
2021/03/30 11:01:25;;;;;;;5.68;2.25;;;;;;;;;;5015713;28;20026;-61
2021/03/30 11:03:51;;;;;;;4.88;2.17;;;;;;;;;;5015201;28;20055;-63
2021/03/30 11:06:17;;;;;;;5.57;2.40;;;;;;;;;;5015346;28;20038;-58
2021/03/30 11:08:44;;;;;;;7.43;3.00;;;;;;;;;;5015468;28;20032;-59
2021/03/30 11:11:10;;;;;;;8.20;3.00;;;;;;;;;;5015518;28;20022;-58
2021/03/30 11:13:36;;;;;;;5.25;2.00;;;;;;;;;;5015120;28;20033;-57
2021/03/30 11:16:04;;;;;;;5.43;2.20;;;;;;;;;;5015171;28;20026;-60
2021/03/30 11:18:30;;;;;;;7.28;2.53;;;;;;;;;;5014841;28;20038;-59
2021/03/30 11:20:56;;;;;;;5.32;2.33;;;;;;;;;;5014997;28;20351;-57
2021/03/30 11:23:22;;;;;;;6.00;2.42;;;;;;;;;;5015005;28;20045;-59
2021/03/30 11:25:48;;;;;;;6.32;2.75;;;;;;;;;;5014910;28;20025;-55
2021/03/30 11:28:15;;;;;;;6.07;2.17;;;;;;;;;;5015118;28;20381;-60
2021/03/30 11:30:46;;;;;;;4.47;1.85;;;;;;;;;;5014791;28;20107;-58
2021/03/30 11:33:25;;;;;;;2.90;1.42;;;;;;;;;;5014978;28;20030;-60
2021/03/30 11:35:55;;;;;;;4.15;1.90;;;;;;;;;;5014625;28;20058;-58
2021/03/30 11:38:22;;;;;;;5.13;2.10;;;;;;;;;;5014756;28;20026;-58
2021/03/30 11:40:48;;;;;;;6.75;2.70;;;;;;;;;;5014620;28;20033;-60
2021/03/30 11:43:14;;;;;;;6.38;2.13;;;;;;;;;;5014674;28;20034;-58
2021/03/30 11:45:40;;;;;;;7.57;3.00;;;;;;;;;;5014313;28;20477;-55
2021/03/30 11:48:07;;;;;;;6.40;2.78;;;;;;;;;;5014606;28;20133;-51
2021/03/30 11:50:33;;;;;;;9.50;3.65;;;;;;;;;;5014292;28;20101;-54
2021/03/30 11:52:59;;;;;;;4.68;2.28;;;;;;;;;;5014559;28;20454;-58
2021/03/30 11:55:25;;;;;;;4.88;2.17;;;;;;;;;;5014640;28;20026;-53
2021/03/30 11:57:52;;;;;;;3.92;2.25;;;;;;;;;;5014318;28;20021;-54
2021/03/30 12:00:19;;;;;;;4.82;2.00;;;;;;;;;;5014333;28;20030;-58
2021/03/30 12:02:46;;;;;;;7.00;3.53;;;;;;;;;;5014357;28;20038;-53
2021/03/30 12:05:12;;;;;;;7.03;2.50;;;;;;;;;;5014654;28;20029;-48
2021/03/30 12:07:38;;;;;;;5.47;2.58;;;;;;;;;;5013999;28;20142;-57
2021/03/30 12:10:05;;;;;;;6.55;2.45;;;;;;;;;;5014361;28;20408;-58
2021/03/30 12:12:32;;;;;;;5.28;2.33;;;;;;;;;;5014191;28;20397;-54
2021/03/30 12:14:58;;;;;;;5.05;2.28;;;;;;;;;;5013852;28;20018;-44
2021/03/30 12:17:24;;;;;;;5.45;2.65;;;;;;;;;;5014278;28;20032;-54
2021/03/30 12:19:51;;;;;;;4.70;2.00;;;;;;;;;;5013723;28;20030;-60
2021/03/30 12:22:17;;;;;;;6.38;2.80;;;;;;;;;;5013933;28;20045;-55
2021/03/30 12:24:43;;;;;;;8.07;2.30;;;;;;;;;;5013935;28;20057;-59
2021/03/30 12:27:11;;;;;;;5.63;2.10;;;;;;;;;;5013808;28;20453;-55
2021/03/30 12:29:40;;;;;;;4.80;2.40;;;;;;;;;;5013447;28;20050;-59
2021/03/30 12:32:06;;;;;;;8.77;2.80;;;;;;;;;;5013546;28;20071;-60
2021/03/30 12:34:35;;;;;;;5.63;2.40;;;;;;;;;;5013588;28;20117;-59
2021/03/30 12:37:02;;;;;;;5.60;3.10;;;;;;;;;;5013863;28;20049;-58
2021/03/30 12:39:28;;;;;;;5.22;2.13;;;;;;;;;;5013811;28;20111;-51
2021/03/30 12:41:54;;;;;;;3.58;1.50;;;;;;;;;;5013041;28;20466;-57
2021/03/30 12:44:20;;;;;;;5.45;2.00;;;;;;;;;;5012795;28;20026;-58
2021/03/30 12:46:46;;;;;;;7.18;2.13;;;;;;;;;;5013436;28;20033;-51
2021/03/30 12:49:12;;;;;;;8.23;3.28;;;;;;;;;;5013270;28;20109;-55
2021/03/30 12:51:39;;;;;;;7.78;2.50;;;;;;;;;;5013289;28;20029;-57
2021/03/30 12:54:05;;;;;;;6.47;2.47;;;;;;;;;;5013609;28;20568;-58
2021/03/30 12:56:31;;;;;;;8.52;4.18;;;;;;;;;;5013527;28;20022;-61
2021/03/30 12:58:57;;;;;;;5.10;2.60;;;;;;;;;;5013284;28;20053;-60
2021/03/30 13:01:23;;;;;;;6.97;3.00;;;;;;;;;;5013265;28;20485;-61
2021/03/30 13:03:50;;;;;;;6.82;3.50;;;;;;;;;;5013051;28;20068;-55
2021/03/30 13:06:16;;;;;;;10.23;4.15;;;;;;;;;;5013293;28;20037;-52
2021/03/30 13:08:42;;;;;;;7.25;3.50;;;;;;;;;;5013291;28;20042;-56
2021/03/30 13:11:08;;;;;;;6.93;2.92;;;;;;;;;;5012940;28;20108;-60
2021/03/30 13:13:34;;;;;;;7.75;3.28;;;;;;;;;;5012759;28;20025;-57
2021/03/30 13:16:01;;;;;;;8.43;2.85;;;;;;;;;;5012933;28;20123;-57
2021/03/30 13:18:27;;;;;;;7.40;3.20;;;;;;;;;;5012447;28;20164;-54
2021/03/30 13:20:53;;;;;;;6.97;3.38;;;;;;;;;;5012651;28;20083;-60
2021/03/30 13:23:19;;;;;;;7.90;3.17;;;;;;;;;;4995772;28;20624;-56
2021/03/30 13:25:45;;;;;;;6.32;3.20;;;;;;;;;;5012833;28;20105;-60
2021/03/30 13:28:13;;;;;;;6.03;3.05;;;;;;;;;;5013174;28;20068;-57
2021/03/30 13:30:40;;;;;;;7.05;3.50;;;;;;;;;;5012742;28;20050;-60
2021/03/30 13:33:06;;;;;;;7.85;3.47;;;;;;;;;;5012984;28;20036;-58
2021/03/30 13:35:32;;;;;;;8.73;3.80;;;;;;;;;;5013082;28;20037;-57
2021/03/30 13:37:58;;;;;;;9.35;3.42;;;;;;;;;;5012488;28;20076;-60
2021/03/30 13:40:25;;;;;;;8.15;3.90;;;;;;;;;;5012722;28;20084;-53
2021/03/30 13:42:51;;;;;;;6.03;3.20;;;;;;;;;;5012597;28;20030;-56
2021/03/30 13:45:18;;;;;;;7.07;3.45;;;;;;;;;;5013290;28;20040;-59
2021/03/30 13:47:44;;;;;;;5.63;2.85;;;;;;;;;;5012730;28;20029;-59
2021/03/30 13:50:11;;;;;;;7.72;3.45;;;;;;;;;;5012512;28;20476;-59
2021/03/30 13:52:38;;;;;;;7.22;3.33;;;;;;;;;;5012599;28;20046;-60
2021/03/30 13:55:05;;;;;;;6.43;3.55;;;;;;;;;;5014131;28;20041;-57
2021/03/30 13:57:31;;;;;;;9.48;3.22;;;;;;;;;;5016700;28;20056;-54
2021/03/30 13:59:57;;;;;;;6.80;2.95;;;;;;;;;;5016835;28;20053;-59
2021/03/30 14:02:23;;;;;;;7.45;2.72;;;;;;;;;;5016750;28;20399;-61
2021/03/30 14:04:49;;;;;;;7.63;3.35;;;;;;;;;;5016662;28;20168;-62
2021/03/30 14:07:15;;;;;;;6.95;2.50;;;;;;;;;;5016081;28;20164;-59
2021/03/30 14:09:41;;;;;;;6.03;2.63;;;;;;;;;;5016847;28;20377;-61
2021/03/30 14:12:17;;;;;;;5.68;2.80;;;;;;;;;;5016353;28;20037;-59
2021/03/30 14:14:46;;;;;;;6.18;3.53;;;;;;;;;;5016310;28;20117;-59
2021/03/30 14:17:23;;;;;;;8.88;3.20;;;;;;;;;;5016786;28;20030;-57
2021/03/30 14:19:51;;;;;;;9.75;3.30;;;;;;;;;;5016670;28;20458;-57
2021/03/30 14:22:24;;;;;;;7.40;3.03;;;;;;;;;;5016222;28;20030;-54
2021/03/30 14:24:53;;;;;;;;;;;;;;;;;;5016789;28;20026;-62
2021/03/30 14:27:19;;;;;;;11.40;5.07;;;;;;;;;;5016399;28;19911;-58
2021/03/30 14:29:45;;;;;;;7.13;3.67;;;;;;;;;;5015914;28;20054;-53
2021/03/30 14:32:14;;;;;;;6.72;3.38;;;;;;;;;;5016095;28;20060;-60
2021/03/30 14:34:41;;;;;;;5.28;2.80;;;;;;;;;;5016457;28;20030;-56
2021/03/30 14:37:08;;;;;;;6.90;2.80;;;;;;;;;;5015770;28;20473;-57
2021/03/30 14:39:34;;;;;;;6.55;3.33;;;;;;;;;;5015975;28;20022;-54
2021/03/30 14:42:24;;;;;;;8.43;3.88;;;;;;;;;;5016165;28;20365;-58
2021/03/30 14:55:22;;;;;;;9.75;4.55;;;;;;;;;;5015645;28;20046;-59
2021/03/30 14:58:06;;;;;;;10.57;4.97;;;;;;;;;;5015592;28;20018;-58
2021/03/30 15:05:39;;;;;;;9.55;4.18;;;;;;;;;;5015422;28;20038;-59
2021/03/30 15:08:06;;;;;;;6.78;3.63;;;;;;;;;;5014812;28;20029;-55